Dallas Center, IA (50063)

4:51 PM CDT on September 02, 2015 (GMT -0500)
BALDNER FARM | | Change Station
CLOSE
Current Station
Personal Weather Station
Location: Dallas Center, IA
Elevation: 1100 ft
Nearby Weather Stations

Elev 1100 ft 41.71 °N, 93.93 °W | Updated 13 minutes ago

Clear
Clear
87.9 °F
Feels Like 96 °F
N
7.0
Wind Variable Wind from SW
Gusts 10.0 mph

Today
High -- | Low -- °F
--% Chance of Precip.
Yesterday
High -- | Low -- °F
Precip. -- in
6:42 AM 7:47 PM
Waning Gibbous, 77% visible
Pressure 29.87 in
Visibility 10.0 miles
Clouds Clear
Heat Index 96 °F
Dew Point 73 °F
Humidity 62%
Rainfall 0.73 in
Snow Depth Not available.
UV 4 out of 12
Pollen 11.10 out of 12
Air Quality Not available.
Flu Activity Not available.
METAR KPRO 022135Z AUTO 21009G16KT 10SM CLR 31/21 A2987 RMK AO2 T03050205
Pressure 29.87 in
Visibility 10.0 miles
Clouds Clear
Heat Index 96 °F
Dew Point 73 °F
Humidity 62%
Rainfall 0.73 in
Snow Depth Not available.
UV 4 out of 12
Pollen 11.10 out of 12
Air Quality Not available.
Flu Activity Not available.
METAR KPRO 022135Z AUTO 21009G16KT 10SM CLR 31/21 A2987 RMK AO2 T03050205

10-Day Weather Forecast

×

Almanac

Astronomy

Sep. 02, 2015 Rise Set
Actual Time
Civil Twilight
Nautical Twilight
Astronomical Twilight
Moon
Length of Visible Light
Length of Day
Tomorrow will be .
, % of the Moon is Illuminated

Today's Extremes

State Highs State Lows

Community

WunderPhotos

Upload Photos

1,851,818 photos uploaded!

WunderBlogs® & News

Nearby

Air Quality

  Air Quality AQ Index Pollutant
Not available.

Snow Depth

Station Depth Elevation

Earthquake Activity

City Distance Mag. Time & Date
Minimum magnitude displayed is 2.5.

Coastal Water Temperatures

Place Temperature

Stations

Nearby Weather Stations

Station Location Temp. Windchill Dew Point Humidity Wind Precip. Elev Updated Type